Hauptseite
METAR-TAF:

METAR-TAF

Flughäfen :

Fliegerhorst Ingolstadt/Manching

Ingolstadt, Deutschland

Breite: 48-43N, Länge: 011-32E, Höhe: 367 m

Beobachtung

Neuester Wetterbericht von vor 1 Stunde und 11 Minuten, um 11:20 UTC
Wind 10 kt aus West
Temperatur 25°C
Luftfeuchtigkeit 44%
Luftdruck 1017 hPa
Sichtweite 10 km oder mehr
Aufgelockert bewölkt in der Höhe von 5000 ft

METAR: ETSI 181120Z 27010KT 9999 SCT050 25/12 Q1017 BLU+BLU+

Zeit: 14:31 (12:31 UTC)

Prognose

Neuester Wetterbericht von vor 2 Stunden und 16 Minuten, um 10:15 UTC
Gültige Prognose vom 18 um 11 UTC bis 18 um 20 UTC
Wind 10 kt aus West/Nordwest
Sichtweite 10 km oder mehr
Aufgelockert bewölkt in der Höhe von 5000 ft

TAF: ETSI 181015Z 1811/1820 30010KT 9999 NSW SCT050

Wetterbeobachtungen und Prognosen von mehr als 4000 Flughäfen (METAR und TAF Bericht).

Die verfügbaren Stationen werden durch gelbe und rote Markierungen auf der Karte dargestellt.

Führen Sie die Maus auf sie, um den Namen der Station zu sehen.

Darauf klicken, um die Beobachtung von Wetterbeobachtungen und Prognosen zu sehen.

Um die Karte zu ändern : klicken Sie auf den grünen Tasten mit einem schwarzen Kreuz Zum Vergrößern, auf den grünen Button mit einem Gedankenstrich zu verkleinern, oder auf die grünen Pfeile für benachbarte Karten.


METAR-TAF: